Guthrie, Oklahoma
Current Conditions -  °F | °C
As of 10:53 PM on Wednesday 22 Oct 2014 (Local Time) from KGOK Reporting Station
Light Rain Light Rain  
Wind Chill: 62°   Ceiling: 6000
Heat Index: 62°   Visibility: 10mi
Dew Point: 60°   Wind: 6mph
Humidity: 93%   Direction: 140°SE
Pressure: 30.12"   Gusts: NA
Location:  35.88°N, 97.42°W
Report Text: KGOK 230353Z AUTO 14005KT 10SM -RA BKN060 OVC100 17/16 A3012 RMK AO2 SLP194 P0006 T01670156
Loading
Personal Weather Stations






























Interactive Weather Map
Tropical Storm Tracking
New forecast layout! Learn more

10-Day Weather Forecast

Advertisements
Track Severe Weather on mobile